This is the latest recevied weather packets stored in our database for station/object LZ3DJ-10. If no packets are shown the sender has not sent any weather packets the latest 10 day(s).
| Time | Temp. | Humidity | Pressure | Rain* | Wind** | Luminosity | Snow |
|---|---|---|---|---|---|---|---|
| 1787670905 | 31.11° C | 45% | 1008.7 hPa | 0 mm | 1.34 m/s, 135° | - | - |
| 1787670005 | 31.11° C | 45% | 1008.8 hPa | 0 mm | 1.79 m/s, 143° | - | - |
| 1787669106 | 31.67° C | 45% | 1008.6 hPa | 0 mm | 0.89 m/s, 142° | - | - |
| 1787668205 | 31.67° C | 45% | 1008.7 hPa | 0 mm | 0.89 m/s, 147° | - | - |
| 1787667306 | 32.78° C | 42% | 1008.5 hPa | 0 mm | 0.45 m/s, 148° | - | - |
| 1787666406 | 31.11° C | 46% | 1008.8 hPa | 0 mm | 0.89 m/s, 140° | - | - |
| 1787665506 | 28.89° C | 53% | 1009.3 hPa | 0 mm | 0.89 m/s, 147° | - | - |
| 1787664606 | 30° C | 48% | 1009.3 hPa | 0 mm | 0.89 m/s, 126° | - | - |
| 1787663705 | 31.11° C | 42% | 1009.1 hPa | 0 mm | 0 m/s | - | - |
| 1787662806 | 32.22° C | 42% | 1008.6 hPa | 0 mm | 0 m/s | - | - |
| 1787661905 | 32.78° C | 40% | 1008.5 hPa | 0 mm | 0.45 m/s, 137° | - | - |
| 1787661006 | 33.89° C | 40% | 1008.5 hPa | 0 mm | 0 m/s | - | - |
| 1787660106 | 34.44° C | 40% | 1008.7 hPa | 0 mm | 0 m/s | - | - |
| 1787659205 | 33.33° C | 43% | 1009.2 hPa | 0 mm | 0 m/s | - | - |
| 1787658306 | 32.78° C | 43% | 1009.5 hPa | 0 mm | 0.45 m/s, 138° | - | - |
| 1787657405 | 33.33° C | 43% | 1009.5 hPa | 0 mm | 0 m/s | - | - |
| 1787656506 | 32.22° C | 43% | 1010 hPa | 0 mm | 0 m/s | - | - |
| 1787655605 | 31.11° C | 45% | 1010.4 hPa | 0 mm | 0.45 m/s, 136° | - | - |
| 1787654706 | 30.56° C | 49% | 1010.7 hPa | 0 mm | 0 m/s | - | - |
| 1787653805 | 29.44° C | 50% | 1011.2 hPa | 0 mm | 0 m/s | - | - |
| 1787652906 | 29.44° C | 50% | 1011.4 hPa | 0 mm | 0 m/s | - | - |
| 1787652005 | 30.56° C | 48% | 1011.2 hPa | 0 mm | 0 m/s | - | - |
| 1787651105 | 29.44° C | 48% | 1011.4 hPa | 0 mm | 0 m/s | - | - |
| 1787650205 | 28.89° C | 50% | 1011.5 hPa | 0 mm | 0 m/s | - | - |
| 1787649305 | 28.89° C | 53% | 1011.8 hPa | 0 mm | 0.45 m/s, 106° | - | - |
* Rain latest hour (hover to see other rain measurements)
** Current wind speed in m/s (hover to see current wind gust speed)